Hlavní strana
METAR-TAF:

METAR-TAF

Letiště :

Curaçao, Nizozemské Antily

zeměpisná šířka: 12-12N, zeměpisná délka: 068-58W, výška: 9 m

Aktuální stav počasí

Zpráva byla vytvořena před 48 minutami, v 22:00 UTC
Východojihovýchodní vítr 14 kt s nárazy do 24 kt
Teplota 27°C
Vlhkost vzduchu 70%
Tlak 1014 hPa
Viditelnost 10 km a více

METAR: TNCC 152200Z AUTO 12014G24KT 9999 NSC 27/21 Q1014 NOSIG

Čas: 18:48 (22:48 UTC)

Předpověď počasí

Zpráva byla vytvořena před 6 hodinami a 48 minutami, v 16:00 UTC
Předpověď platná od 15 v 18 UTC do 16 v 18 UTC
Východojihovýchodní vítr 15 kt
Viditelnost 10 km a více
Polojasno ve výšce 2000 ft

TAF: TNCC 151600Z 1518/1618 11015KT 9999 SCT020

Stav a předpovědi počasí z více než 4 000 letišť (zprávy METAR a TAF).

Červené a žluté tečky na mapě představují dostupné meteorologické stanice.

Když kurzor umístíte na tečku, zobrazí se název stanice.

Pak kliknutím zobrazíte stav a předpověď počasí.

Chcete-li změnit mapu, kliknutím na zelené tlačítko se znaménkem +mapu přiblížíte, kliknutím na zelené tlačítko se znaménkem – mapu oddálíte a kliknutím na zelené šipky přejdete na sousední mapy.


METAR-TAF: